East Willows Rd (358) Station Data

Red Flag Warning: No
Fire Weather Zone: 250
SDGE Region: Eastern
Lat/Lon: 32.837/-116.682

Observations

Time Wind Speed/Gust Temp(F) RH Fuel Moist Fuel Temp(F) Dewpt(F) Tmax(F) Tmin(F) Accum Precip 10-min Precip SL Press(mb)
5/24 8:20am 97 5 G 8 70° 37% - - 43° 72.1° 62.1° - - -
5/24 8:10am 107 4 G 5 69° 35% - - 40° 70.4° 62.1° - - -
5/24 8:00am 132 4 G 6 68° 36% - - 40° 70.4° 62.1° - - -
5/24 7:50am 129 4 G 6 67° 37% - - 40° 70.4° 62.1° - - -
5/24 7:40am 136 4 G 5 66° 38% - - 40° 70.4° 62.1° - - -
5/24 7:30am 91 4 G 6 65° 40% - - 40° 70.4° 62.1° - - -
5/24 7:20am 73 3 G 5 64° 41% - - 40° 70.4° 62.1° - - -
5/24 7:10am 139 5 G 7 65° 39% - - 39° 70.4° 62.1° - - -
5/24 7:00am 155 4 G 7 67° 33% - - 37° 70.4° 62.1° - - -
5/24 6:50am 141 4 G 5 69° 30% - - 37° 70.4° 62.1° - - -
5/24 6:40am 126 5 G 7 67° 31% - - 36° 70.4° 62.1° - - -
5/24 6:30am 122 7 G 8 66° 33% - - 36° 70.4° 62.1° - - -
5/24 6:20am 124 7 G 9 65° 34% - - 36° 70.4° 62.1° - - -
5/24 6:10am 115 6 G 8 66° 34% - - 36° 70.4° 62.1° - - -
5/24 6:00am 122 6 G 8 65° 34% - - 36° 70.4° 62.1° - - -
5/24 5:50am 127 6 G 7 66° 34% - - 37° 70.4° 62.1° - - -
5/24 5:40am 126 6 G 7 65° 35% - - 36° 70.4° 62.1° - - -
5/24 5:30am 128 7 G 8 64° 35% - - 36° 70.4° 62.1° - - -
5/24 5:20am 121 8 G 9 65° 35% - - 37° 70.4° 62.1° - - -
5/24 5:10am 118 9 G 10 63° 36% - - 36° 70.4° 62.1° - - -
5/24 5:00am 111 9 G 11 63° 35% - - 35° 70.4° 62.4° - - -
5/24 4:50am 109 9 G 11 63° 35% - - 35° 70.4° 62.4° - - -
5/24 4:40am 109 9 G 11 65° 33% - - 35° 70.4° 63.4° - - -
5/24 4:30am 109 8 G 10 66° 33% - - 36° 70.4° 65.4° - - -
5/24 4:20am 118 7 G 8 66° 33% - - 36° 70.4° 65.4° - - -
5/24 4:10am 111 6 G 8 66° 33% - - 36° 70.4° 65.4° - - -
5/24 4:00am 115 6 G 7 67° 32% - - 37° 70.4° 65.4° - - -
5/24 3:50am 123 6 G 8 67° 33% - - 37° 70.4° 65.4° - - -
5/24 3:40am 130 5 G 7 67° 33% - - 37° 70.4° 65.4° - - -
5/24 3:30am 127 5 G 7 68° 31% - - 36° 70.4° 65.4° - - -
5/24 3:20am 118 6 G 7 68° 31% - - 36° 70.4° 65.4° - - -
5/24 3:10am 127 6 G 8 66° 33% - - 36° 70.4° 65.4° - - -
5/24 3:00am 129 7 G 8 67° 34% - - 37° 70.4° 65.7° - - -
5/24 2:50am 120 7 G 8 67° 35% - - 38° 70.4° 65.7° - - -
5/24 2:40am 114 6 G 7 68° 33% - - 38° 70.4° 65.8° - - -
5/24 2:30am 119 6 G 7 68° 34% - - 39° 70.4° 65.8° - - -
5/24 2:20am 121 7 G 8 67° 36% - - 39° 70.4° 65.8° - - -
5/24 2:10am 117 7 G 9 67° 35% - - 38° 70.4° 66.3° - - -
5/24 2:00am 123 6 G 8 67° 34% - - 38° 70.4° 66.3° - - -
5/24 1:50am 127 6 G 8 67° 34% - - 38° 70.4° 66.3° - - -
5/24 1:40am 127 6 G 8 67° 35% - - 38° 70.4° 66.3° - - -
5/24 1:30am 120 5 G 7 67° 36% - - 39° 70.4° 66.3° - - -
5/24 1:20am 111 5 G 7 67° 38% - - 41° 70.4° 66.3° - - -
5/24 1:10am 107 6 G 8 67° 39% - - 42° 70.4° 66.3° - - -
5/24 1:00am 100 3 G 7 69° 40% - - 44° 70.4° 67.7° - - -
5/24 12:50am 88 3 G 5 68° 41% - - 44° 70.4° 67.7° - - -
5/24 12:40am 103 5 G 7 69° 38% - - 42° 70.4° 67.7° - - -
5/24 12:30am 95 5 G 6 70° 36% - - 41° 70.4° 68.4° - - -
5/24 12:20am 111 5 G 6 69° 35% - - 41° 69.9° 68.4° - - -
5/24 12:10am 120 5 G 6 69° 34% - - 40° 69.6° 68.4° - - -
5/24 12:00am 118 5 G 6 69° 36% - - 40° 89.2° 67.6° - - -
5/23 11:50pm 131 4 G 6 70° 37% - - 42° 89.2° 67.6° - - -
5/23 11:40pm 118 5 G 6 69° 39% - - 43° 89.2° 67.6° - - -
5/23 11:30pm 136 5 G 5 69° 41% - - 44° 89.2° 67.6° - - -
5/23 11:20pm 110 3 G 4 70° 41% - - 45° 89.2° 67.6° - - -
5/23 11:10pm 107 4 G 5 69° 41% - - 45° 89.2° 67.6° - - -
5/23 11:00pm 135 4 G 5 69° 45% - - 47° 89.2° 67.6° - - -
5/23 10:50pm 102 1 G 3 69° 50% - - 49° 89.2° 67.6° - - -
5/23 10:40pm 69 2 G 3 69° 48% - - 49° 89.2° 67.6° - - -
5/23 10:30pm 120 3 G 3 70° 47% - - 49° 89.2° 67.6° - - -
5/23 10:20pm 136 3 G 4 69° 49% - - 49° 89.2° 67.6° - - -
5/23 10:10pm 118 4 G 4 69° 49% - - 49° 89.2° 67.6° - - -
5/23 10:00pm 105 4 G 5 69° 51% - - 50° 89.2° 67.6° - - -
5/23 9:50pm 106 5 G 6 68° 54% - - 51° 89.2° 67.6° - - -
5/23 9:40pm 120 4 G 5 69° 57% - - 53° 89.2° 67.6° - - -
5/23 9:30pm 142 3 G 4 69° 60% - - 54° 89.2° 67.6° - - -
5/23 9:20pm 157 2 G 3 69° 59% - - 54° 89.2° 67.6° - - -
5/23 9:10pm 184 2 G 3 69° 59% - - 54° 89.2° 67.6° - - -
5/23 9:00pm 207 2 G 4 70° 56% - - 54° 89.2° 67.6° - - -
5/23 8:50pm 240 2 G 3 71° 54% - - 54° 89.2° 67.6° - - -
5/23 8:40pm 266 2 G 2 72° 52% - - 53° 89.2° 67.6° - - -
5/23 8:30pm 213 2 G 4 72° 53% - - 54° 89.2° 67.6° - - -
5/23 8:20pm 206 2 G 3 72° 53% - - 54° 89.2° 67.6° - - -
5/23 8:10pm 190 1 G 2 72° 53% - - 54° 89.2° 67.6° - - -
5/23 8:00pm 152 2 G 3 71° 54% - - 54° 89.2° 67.6° - - -
5/23 7:50pm 126 3 G 3 71° 55% - - 54° 89.2° 67.6° - - -
5/23 7:40pm 144 2 G 3 71° 56% - - 54° 89.2° 67.6° - - -
5/23 7:30pm 168 3 G 5 71° 56% - - 54° 89.2° 67.6° - - -
5/23 7:20pm 193 5 G 9 71° 55% - - 54° 89.2° 67.6° - - -
5/23 7:10pm 196 7 G 10 72° 54% - - 54° 89.2° 67.6° - - -
5/23 7:00pm 201 6 G 10 73° 51% - - 54° 89.2° 67.6° - - -
5/23 6:50pm 224 8 G 11 75° 47% - - 54° 89.2° 67.6° - - -
5/23 6:40pm 228 8 G 12 78° 41% - - 52° 89.2° 67.6° - - -
5/23 6:30pm 278 5 G 9 81° 33% - - 48° 89.2° 67.6° - - -
5/23 6:20pm 310 5 G 8 81° 30% - - 47° 89.2° 67.6° - - -
5/23 6:10pm 317 6 G 10 81° 31% - - 47° 89.2° 67.6° - - -
5/23 6:00pm 319 7 G 10 81° 32% - - 49° 89.2° 67.6° - - -
5/23 5:50pm 306 9 G 12 81° 34% - - 49° 89.2° 67.6° - - -
5/23 5:40pm 311 9 G 13 81° 36% - - 52° 89.2° 67.6° - - -
5/23 5:30pm 321 9 G 13 81° 39% - - 53° 89.2° 67.6° - - -
5/23 5:20pm 334 10 G 13 81° 39% - - 54° 89.2° 67.6° - - -
5/23 5:10pm 331 9 G 13 81° 39% - - 54° 89.2° 67.6° - - -
5/23 5:00pm 336 9 G 14 81° 39% - - 54° 89.2° 67.6° - - -
5/23 4:50pm 332 10 G 14 81° 41% - - 55° 89.2° 67.6° - - -
5/23 4:40pm 335 10 G 13 80° 42% - - 55° 89.2° 67.6° - - -
5/23 4:30pm 326 10 G 15 81° 42% - - 55° 89.2° 67.6° - - -
5/23 4:20pm 330 9 G 14 81° 42% - - 56° 89.2° 67.6° - - -
5/23 4:10pm 316 7 G 12 82° 38% - - 54° 89.2° 67.6° - - -
5/23 4:00pm 242 7 G 14 81° 35% - - 51° 89.2° 67.6° - - -
5/23 3:50pm 239 9 G 14 80° 37% - - 52° 89.2° 67.6° - - -
5/23 3:40pm 236 9 G 14 80° 43% - - 56° 89.2° 67.6° - - -
5/23 3:30pm 236 9 G 16 79° 46% - - 57° 89.2° 67.6° - - -
5/23 3:20pm 240 11 G 17 79° 48% - - 57° 89.2° 67.6° - - -
5/23 3:10pm 238 11 G 17 79° 46% - - 57° 89.2° 67.6° - - -
5/23 3:00pm 238 11 G 17 80° 46% - - 57° 89.2° 67.6° - - -
5/23 2:50pm 234 11 G 16 80° 48% - - 58° 89.2° 67.6° - - -
5/23 2:40pm 237 9 G 14 81° 45% - - 58° 89.2° 67.6° - - -
5/23 2:30pm 238 10 G 15 80° 46% - - 58° 89.2° 67.6° - - -
5/23 2:20pm 236 11 G 19 81° 47% - - 59° 89.2° 67.6° - - -
5/23 2:10pm 235 11 G 19 81° 46% - - 59° 89.2° 67.6° - - -
5/23 2:00pm 231 11 G 15 81° 44% - - 58° 89.2° 67.6° - - -
5/23 1:50pm 239 11 G 16 82° 43% - - 57° 89.2° 67.6° - - -
5/23 1:40pm 245 10 G 14 82° 41% - - 57° 89.2° 67.6° - - -
5/23 1:30pm 233 9 G 15 83° 43% - - 58° 89.2° 67.6° - - -
5/23 1:20pm 230 9 G 15 83° 42% - - 58° 89.2° 67.6° - - -
5/23 1:10pm 239 10 G 15 83° 40% - - 56° 89.2° 67.6° - - -
5/23 1:00pm 243 11 G 17 84° 38% - - 56° 89.2° 67.6° - - -
5/23 12:50pm 230 11 G 16 84° 34% - - 52° 89.2° 67.6° - - -
5/23 12:40pm 245 10 G 16 86° 28% - - 49° 89.2° 67.6° - - -
5/23 12:30pm 235 10 G 16 86° 29% - - 50° 89.2° 67.6° - - -
5/23 12:20pm 236 9 G 13 86° 28% - - 49° 89.2° 67.6° - - -
5/23 12:10pm 245 8 G 12 87° 28% - - 50° 89.2° 67.6° - - -
5/23 12:00pm 257 8 G 11 87° 26% - - 48° 89.2° 67.6° - - -
5/23 11:50am 248 8 G 13 88° 24% - - 46° 89.2° 67.6° - - -
5/23 11:40am 244 9 G 15 87° 25% - - 47° 89.2° 67.6° - - -
5/23 11:30am 229 10 G 15 87° 25% - - 47° 89.2° 67.6° - - -
5/23 11:20am 229 6 G 11 88° 22% - - 45° 89.2° 67.6° - - -
5/23 11:10am 246 5 G 10 88° 21% - - 43° 89.2° 67.6° - - -
5/23 11:00am 243 4 G 8 88° 21% - - 43° 88.2° 67.6° - - -
5/23 10:50am 252 4 G 9 87° 22% - - 44° 88° 67.6° - - -
5/23 10:40am 267 2 G 5 87° 22% - - 44° 87.6° 67.6° - - -
5/23 10:30am 282 3 G 6 87° 23% - - 45° 87.4° 67.6° - - -
5/23 10:20am 294 2 G 4 86° 24% - - 45° 86.5° 67.6° - - -
5/23 10:10am 244 1 G 4 85° 25% - - 45° 85.8° 67.6° - - -
5/23 10:00am 3 2 G 6 84° 25% - - 44° 85.2° 67.6° - - -
5/23 9:50am 211 2 G 5 82° 25% - - 43° 84.6° 67.6° - - -
5/23 9:40am 197 3 G 5 82° 26% - - 44° 83.5° 67.6° - - -
5/23 9:30am 202 1 G 4 82° 29% - - 47° 83.5° 67.6° - - -
5/23 9:20am 259 2 G 4 82° 30% - - 47° 82.2° 67.6° - - -
5/23 9:10am 257 1 G 5 81° 32% - - 48° 82° 67.6° - - -
5/23 9:00am 354 1 G 3 79° 30% - - 45° 80.3° 67.6° - - -
5/23 8:50am 12 3 G 4 79° 31% - - 45° 79.2° 67.6° - - -
5/23 8:40am 343 2 G 5 78° 31% - - 45° 78.8° 67.6° - - -
5/23 8:30am 332 1 G 3 78° 30% - - 44° 78.2° 67.6° - - -
5/23 8:20am 278 0 G 2 77° 29% - - 43° 78.2° 67.6° - - -
5/23 8:10am 292 1 G 2 77° 29% - - 42° 77.7° 67.6° - - -
5/23 8:00am 153 0 G 2 77° 30% - - 43° 77.7° 67.6° - - -
5/23 7:50am 119 2 G 4 76° 28% - - 41° 77° 67.6° - - -
5/23 7:40am 142 2 G 3 75° 29% - - 40° 76° 67.6° - - -
5/23 7:30am 137 4 G 5 74° 27% - - 37° 74.8° 67.6° - - -
5/23 7:20am 131 4 G 6 73° 26% - - 37° 73.6° 67.6° - - -
5/23 7:10am 120 5 G 6 73° 26% - - 36° 73.3° 67.6° - - -
5/23 7:00am 116 4 G 6 72° 25% - - 35° 73° 67.6° - - -
5/23 6:50am 112 4 G 5 72° 24% - - 33° 73° 67.6° - - -
5/23 6:40am 103 3 G 4 72° 22% - - 32° 72.8° 67.6° - - -
5/23 6:30am 90 3 G 4 72° 23% - - 32° 72.6° 67.6° - - -
5/23 6:20am 105 3 G 5 71° 23% - - 32° 72.6° 67.6° - - -
5/23 6:10am 111 4 G 6 71° 23% - - 32° 72.6° 67.6° - - -
5/23 6:00am 97 2 G 4 71° 23% - - 31° 72.6° 67.6° - - -